createdAt,value
2018-06-29T10:12:03.792Z,61.40
2018-06-29T10:14:32.732Z,54.70
2018-06-29T10:17:01.561Z,54.70
2018-06-29T10:19:30.481Z,54.70
2018-06-29T10:21:59.364Z,54.60
2018-06-29T10:24:28.222Z,54.40
2018-06-29T10:26:57.076Z,54.40
2018-06-29T10:29:26.025Z,54.20
2018-06-29T10:31:54.852Z,54.20
2018-06-29T10:34:23.907Z,54.20
2018-06-29T10:36:52.789Z,54.00
2018-06-29T10:39:21.572Z,53.80
2018-06-29T10:41:50.799Z,53.80
2018-06-29T10:44:19.638Z,53.80
2018-06-29T10:46:49.093Z,53.80
2018-06-29T10:49:17.924Z,54.00
2018-06-29T10:54:15.204Z,53.20
2018-06-29T10:56:44.288Z,52.70
2018-06-29T10:59:13.279Z,53.30
2018-06-29T11:01:42.340Z,53.70
2018-06-29T11:04:11.785Z,54.30
2018-06-29T11:06:40.584Z,54.10
2018-06-29T11:09:10.251Z,54.30
2018-06-29T11:11:39.065Z,53.90
2018-06-29T11:14:08.516Z,54.80
2018-06-29T11:16:37.509Z,53.50
2018-06-29T11:19:06.379Z,53.90
2018-06-29T11:21:36.174Z,54.30
2018-06-29T11:24:05.956Z,54.10
2018-06-29T11:26:35.085Z,53.60
2018-06-29T11:29:04.965Z,53.30
2018-06-29T11:31:33.993Z,52.60
2018-06-29T11:34:03.531Z,52.70
2018-06-29T11:36:32.469Z,52.80
2018-06-29T11:39:01.338Z,52.60
2018-06-29T11:41:30.408Z,52.70
2018-06-29T11:43:59.260Z,53.00
2018-06-29T11:46:28.327Z,53.10
2018-06-29T11:48:57.212Z,52.30
2018-06-29T11:51:26.470Z,52.90
2018-06-29T11:53:55.316Z,53.60
2018-06-29T11:56:24.125Z,52.90
2018-06-29T11:58:52.990Z,53.10
2018-06-29T12:01:21.885Z,52.20
2018-06-29T12:03:50.888Z,52.80
2018-06-29T12:06:19.716Z,53.10
2018-06-29T12:08:48.816Z,53.00
2018-06-29T12:11:17.691Z,52.50
2018-06-29T12:13:46.737Z,53.00
2018-06-29T12:16:15.560Z,52.80
2018-06-29T12:18:44.387Z,52.70
2018-06-29T12:21:13.648Z,52.30
2018-06-29T12:23:42.873Z,52.40
2018-06-29T12:26:11.700Z,52.40
2018-06-29T12:28:40.706Z,52.30
2018-06-29T12:31:09.576Z,52.10
2018-06-29T12:33:38.493Z,52.30
2018-06-29T12:36:07.373Z,52.20
2018-06-29T12:38:36.238Z,51.80
2018-06-29T12:41:05.269Z,51.60
2018-06-29T12:43:34.060Z,51.30
2018-06-29T12:46:03.591Z,51.30
2018-06-29T12:48:32.761Z,51.10
2018-06-29T12:51:02.843Z,51.10
2018-06-29T12:53:32.546Z,50.70
2018-06-29T12:56:01.944Z,50.50
2018-06-29T12:58:30.757Z,50.30
2018-06-29T13:00:59.886Z,50.40
2018-06-29T13:03:28.708Z,50.40
2018-06-29T13:05:58.223Z,50.70
2018-06-29T13:08:30.565Z,50.90
2018-06-29T13:11:01.060Z,50.90
2018-06-29T13:13:29.912Z,50.80
2018-06-29T13:15:59.208Z,50.70
2018-06-29T13:18:28.057Z,51.00
2018-06-29T13:20:56.998Z,50.80
2018-06-29T13:23:25.866Z,50.70
2018-06-29T13:25:54.850Z,50.70
2018-06-29T13:28:23.950Z,50.40
2018-06-29T13:30:52.782Z,50.50
2018-06-29T13:33:21.589Z,50.30
2018-06-29T13:35:50.694Z,50.30
2018-06-29T13:38:19.519Z,50.00
2018-06-29T13:40:48.362Z,49.90
2018-06-29T13:43:17.153Z,50.00
2018-06-29T13:45:45.989Z,50.10
2018-06-29T13:48:15.068Z,50.10
2018-06-29T13:50:43.952Z,49.60
2018-06-29T13:53:12.964Z,49.00
2018-06-29T13:55:41.796Z,49.40
2018-06-29T13:58:10.672Z,49.30
2018-06-29T14:00:39.502Z,49.30
2018-06-29T14:03:08.576Z,49.20
2018-06-29T14:05:37.402Z,49.30
2018-06-29T14:08:06.224Z,49.50
2018-06-29T14:10:35.079Z,49.70
2018-06-29T14:13:03.930Z,49.70
2018-06-29T14:15:32.752Z,49.60
2018-06-29T14:18:01.725Z,49.30
2018-06-29T14:20:30.616Z,48.90
2018-06-29T14:22:59.457Z,48.80
2018-06-29T14:25:28.300Z,48.20
2018-06-29T14:27:57.088Z,47.70
2018-06-29T14:30:25.964Z,48.30
2018-06-29T14:32:54.873Z,47.40
2018-06-29T14:35:23.742Z,47.70
2018-06-29T14:37:52.536Z,47.30
2018-06-29T14:40:21.381Z,47.00
2018-06-29T14:42:50.345Z,46.90
2018-06-29T14:45:19.162Z,46.40
2018-06-29T14:47:48.056Z,46.20
2018-06-29T14:50:16.900Z,45.90
2018-06-29T14:52:46.871Z,46.10
2018-06-29T14:55:15.699Z,46.20
2018-06-29T14:57:44.970Z,45.90
2018-06-29T15:00:13.785Z,45.40
2018-06-29T15:02:42.674Z,45.30
2018-06-29T15:05:11.529Z,44.10
2018-06-29T15:07:40.595Z,43.90
2018-06-29T15:25:04.350Z,42.00
2018-06-29T15:27:34.174Z,35.00
2018-06-29T16:34:26.009Z,37.20
2018-06-29T16:36:55.040Z,44.10
2018-06-29T16:39:23.885Z,44.70
2018-06-29T16:41:52.969Z,44.90
2018-06-29T16:44:21.785Z,44.90
2018-06-29T16:46:50.800Z,44.80
2018-06-29T16:49:19.624Z,44.90
2018-06-29T16:51:48.436Z,44.80
2018-06-29T16:54:17.398Z,45.20
2018-06-29T16:56:46.260Z,44.80
2018-06-29T16:59:15.074Z,44.90
2018-06-29T17:01:43.956Z,44.80
2018-06-29T17:04:12.800Z,45.20
2018-06-29T17:06:41.669Z,45.40
2018-06-29T17:09:10.802Z,45.50
2018-06-29T17:11:39.639Z,45.30
2018-06-29T17:14:08.460Z,45.10
2018-06-29T17:16:37.404Z,44.80
2018-06-29T17:19:06.373Z,45.20
2018-06-29T17:21:35.385Z,45.40
2018-06-29T17:24:04.245Z,45.80
2018-06-29T17:26:33.152Z,46.00
2018-06-29T17:29:02.084Z,46.00
2018-06-29T17:31:30.904Z,46.10
2018-06-29T17:33:59.775Z,46.20
2018-06-29T17:36:28.762Z,46.40
2018-06-29T17:38:57.541Z,46.50
2018-06-29T17:41:26.576Z,46.70
2018-06-29T17:43:55.680Z,46.30
2018-06-29T17:46:24.693Z,46.60
2018-06-29T17:48:53.557Z,46.60
2018-06-29T17:51:22.588Z,46.20
2018-06-29T17:53:51.464Z,46.80
2018-06-29T17:56:20.248Z,46.50
2018-06-29T17:58:49.064Z,46.20
2018-06-29T18:01:17.991Z,47.10
2018-06-29T18:03:47.052Z,46.80
2018-06-29T18:06:16.017Z,46.90
2018-06-29T18:08:45.095Z,47.10
2018-06-29T18:11:14.058Z,47.00
2018-06-29T18:13:42.997Z,47.40
2018-06-29T18:16:11.939Z,47.40
2018-06-29T18:18:40.809Z,47.60
2018-06-29T18:21:09.728Z,47.70
2018-06-29T18:23:38.616Z,47.80
2018-06-29T18:26:07.437Z,48.10
2018-06-29T18:28:36.626Z,48.40
2018-06-29T18:31:05.419Z,48.50
2018-06-29T18:33:34.356Z,47.70
2018-06-29T18:36:03.191Z,47.10
2018-06-29T18:38:38.352Z,46.70
2018-06-29T18:41:07.327Z,46.60
2018-06-29T18:43:36.152Z,46.60
2018-06-29T18:46:05.483Z,46.60
2018-06-29T18:48:34.397Z,46.60
2018-06-29T18:51:03.192Z,46.60
2018-06-29T18:53:32.168Z,46.80
2018-06-29T18:56:01.806Z,46.30
2018-06-29T18:58:30.952Z,46.40
2018-06-29T19:00:59.803Z,46.50
2018-06-29T19:05:57.168Z,46.60
2018-06-29T19:08:26.333Z,46.80
2018-06-29T19:10:55.228Z,46.80
2018-06-29T19:13:24.168Z,47.20
2018-06-29T19:15:53.192Z,47.10
2018-06-29T19:18:22.365Z,47.10
2018-06-29T19:20:51.244Z,46.90
2018-06-29T19:23:20.089Z,47.00
2018-06-29T19:25:49.337Z,47.30
2018-06-29T19:28:18.278Z,47.80
2018-06-29T19:30:47.245Z,47.30
2018-06-29T19:33:16.095Z,48.10
2018-06-29T19:35:45.445Z,48.60
2018-06-29T19:38:14.454Z,49.30
2018-06-29T19:40:43.639Z,49.80
2018-06-29T19:43:12.568Z,50.10
2018-06-29T19:45:41.460Z,49.80
2018-06-29T19:48:10.359Z,50.20
2018-06-29T19:50:46.100Z,51.20
2018-06-29T19:53:14.941Z,51.00
2018-06-29T19:55:43.777Z,49.70
2018-06-29T19:58:12.650Z,49.40
2018-06-29T20:00:41.560Z,49.30
2018-06-29T20:03:10.573Z,49.50
2018-06-29T20:05:39.532Z,49.60
2018-06-29T20:08:08.645Z,49.90
2018-06-29T20:10:38.656Z,50.30
2018-06-29T20:13:07.510Z,50.00
2018-06-29T20:15:36.584Z,50.00
2018-06-29T20:18:05.372Z,51.20
2018-06-29T20:20:34.251Z,49.60
2018-06-29T20:23:03.257Z,50.70
2018-06-29T20:28:00.989Z,51.50
2018-06-29T20:30:30.153Z,51.70
2018-06-29T20:32:59.351Z,51.80
2018-06-29T20:35:28.132Z,52.40
2018-06-29T20:37:56.978Z,51.40
2018-06-29T20:40:25.878Z,52.00
2018-06-29T20:42:54.708Z,52.60
2018-06-29T20:45:24.108Z,51.50
2018-06-29T20:47:52.992Z,51.00
2018-06-29T20:50:22.021Z,50.80
2018-06-29T20:52:50.950Z,50.90
2018-06-29T20:55:19.790Z,50.50
2018-06-29T20:57:48.766Z,52.10
2018-06-29T21:00:17.688Z,53.30
2018-06-29T21:02:46.565Z,52.10
2018-06-29T21:05:15.524Z,51.00
2018-06-29T21:07:44.373Z,51.80
2018-06-29T21:10:13.352Z,51.90
2018-06-29T21:12:42.344Z,51.40
2018-06-29T21:15:11.458Z,51.40
2018-06-29T21:17:40.372Z,52.30
2018-06-29T21:20:09.332Z,53.60
2018-06-29T21:22:38.183Z,53.10
2018-06-29T21:25:07.190Z,53.30
2018-06-29T21:27:36.456Z,52.30
2018-06-29T21:30:07.891Z,52.90
2018-06-29T21:35:05.464Z,53.30
2018-06-29T21:37:34.420Z,53.00
2018-06-29T21:40:03.520Z,53.30
2018-06-29T21:42:32.422Z,54.20
2018-06-29T21:45:01.237Z,53.40
2018-06-29T21:47:30.044Z,53.40
2018-06-29T21:49:58.924Z,53.20
2018-06-29T21:52:27.787Z,53.50
2018-06-29T21:54:56.631Z,53.80
2018-06-29T21:57:25.499Z,54.00
2018-06-29T21:59:56.525Z,54.10
2018-06-29T22:02:25.424Z,54.00
2018-06-29T22:04:54.573Z,54.00
2018-06-29T22:07:23.585Z,53.60
2018-06-29T22:09:52.401Z,53.50
2018-06-29T22:12:21.779Z,53.70
2018-06-29T22:14:50.681Z,54.20
2018-06-29T22:17:19.609Z,54.30
2018-06-29T22:19:48.440Z,54.30
2018-06-29T22:22:17.284Z,54.60
2018-06-29T22:24:46.734Z,56.20
2018-06-29T22:27:15.580Z,55.60
2018-06-29T22:29:44.422Z,54.50
2018-06-29T22:32:13.273Z,54.40
2018-06-29T22:34:42.280Z,54.40
2018-06-29T22:37:11.121Z,55.10
2018-06-29T22:39:39.928Z,54.40
2018-06-29T22:42:09.819Z,54.20
2018-06-29T22:44:39.102Z,54.10
2018-06-29T22:47:11.236Z,54.00
2018-06-29T22:49:42.073Z,53.80
2018-06-29T22:52:10.888Z,53.80
2018-06-29T22:54:44.956Z,53.70
2018-06-29T22:57:15.277Z,53.70
2018-06-29T22:59:44.358Z,53.70
2018-06-29T23:02:15.678Z,53.90
2018-06-29T23:04:45.364Z,53.70
2018-06-29T23:09:43.344Z,55.10
2018-06-29T23:14:40.860Z,53.40
2018-06-29T23:17:09.710Z,53.60
2018-06-29T23:19:38.752Z,54.00
2018-06-29T23:22:07.779Z,53.70
2018-06-29T23:24:36.905Z,53.60
2018-06-29T23:27:05.852Z,53.60
2018-06-29T23:29:34.684Z,53.80
2018-06-29T23:32:03.567Z,53.70
2018-06-29T23:34:32.414Z,53.10
2018-06-29T23:37:01.293Z,53.00
2018-06-29T23:39:30.966Z,53.30
2018-06-29T23:41:59.936Z,53.30
2018-06-29T23:44:28.802Z,53.70
2018-06-29T23:46:57.722Z,53.70
2018-06-29T23:51:55.192Z,54.50
2018-06-29T23:54:24.019Z,53.50
2018-06-29T23:56:53.056Z,53.50
2018-06-29T23:59:21.927Z,53.40
